createdAt,value
2022-08-21T00:00:38.693Z,0
2022-08-21T00:01:37.059Z,0
2022-08-21T00:02:37.197Z,0
2022-08-21T00:03:37.070Z,0
2022-08-21T00:04:37.049Z,0
2022-08-21T00:05:37.068Z,0
2022-08-21T00:06:37.076Z,0
2022-08-21T00:07:37.063Z,0
2022-08-21T00:08:37.052Z,0
2022-08-21T00:09:37.060Z,0
2022-08-21T00:10:37.055Z,0
2022-08-21T00:11:37.060Z,0
2022-08-21T00:12:37.074Z,0
2022-08-21T00:13:37.069Z,0
2022-08-21T00:14:37.061Z,0
2022-08-21T00:15:37.066Z,0
2022-08-21T00:19:37.058Z,0
2022-08-21T00:20:37.072Z,0
2022-08-21T00:21:37.078Z,0
2022-08-21T00:22:37.059Z,0
2022-08-21T00:23:37.055Z,0
2022-08-21T00:24:37.067Z,0
2022-08-21T00:25:37.053Z,0
2022-08-21T00:26:37.067Z,0
2022-08-21T00:27:37.048Z,0
2022-08-21T00:28:37.060Z,0
2022-08-21T00:29:37.056Z,0
2022-08-21T00:30:37.045Z,0
2022-08-21T00:31:37.054Z,0
2022-08-21T00:32:37.063Z,0
2022-08-21T00:33:37.057Z,0
2022-08-21T00:34:37.064Z,0
2022-08-21T00:35:37.072Z,0
2022-08-21T00:36:37.083Z,0
2022-08-21T00:37:37.054Z,0
2022-08-21T00:38:37.070Z,0
2022-08-21T00:39:37.137Z,0
2022-08-21T00:40:37.070Z,0
2022-08-21T00:41:38.946Z,0
2022-08-21T00:42:37.062Z,0
2022-08-21T00:43:37.067Z,0
2022-08-21T00:44:37.074Z,0
2022-08-21T00:45:37.058Z,0
2022-08-21T00:46:37.076Z,0
2022-08-21T00:47:37.051Z,0
2022-08-21T00:48:37.069Z,0
2022-08-21T00:49:37.054Z,0
2022-08-21T00:50:37.057Z,0
2022-08-21T00:51:38.512Z,0
2022-08-21T00:52:37.046Z,0
2022-08-21T00:53:37.062Z,0
2022-08-21T00:54:37.050Z,0
2022-08-21T00:55:37.051Z,0
2022-08-21T00:56:37.054Z,0
2022-08-21T00:57:37.054Z,0
2022-08-21T00:58:37.076Z,0
2022-08-21T00:59:37.048Z,0
2022-08-21T01:00:37.043Z,0
2022-08-21T01:01:37.118Z,0
2022-08-21T01:02:37.058Z,0
2022-08-21T01:03:37.067Z,0
2022-08-21T01:04:37.057Z,0
2022-08-21T01:08:37.067Z,0
2022-08-21T01:09:37.069Z,0
2022-08-21T01:10:37.062Z,0
2022-08-21T01:11:37.054Z,0
2022-08-21T01:12:37.049Z,0
2022-08-21T01:13:37.061Z,0
2022-08-21T01:14:37.069Z,0
2022-08-21T01:15:37.057Z,0
2022-08-21T01:16:37.054Z,0
2022-08-21T01:17:37.054Z,0
2022-08-21T01:18:37.063Z,0
2022-08-21T01:19:37.057Z,0
2022-08-21T01:20:37.057Z,0
2022-08-21T01:21:37.045Z,0
2022-08-21T01:22:37.063Z,0
2022-08-21T01:23:37.057Z,0
2022-08-21T01:24:37.066Z,0
2022-08-21T01:25:37.050Z,0
2022-08-21T01:26:37.054Z,0
2022-08-21T01:27:37.061Z,0
2022-08-21T01:28:37.067Z,0
2022-08-21T01:29:37.067Z,0
2022-08-21T01:30:37.049Z,0
2022-08-21T01:31:37.055Z,0
2022-08-21T01:32:37.066Z,0
2022-08-21T01:33:37.082Z,0
2022-08-21T01:34:37.063Z,0
2022-08-21T01:35:37.051Z,0
2022-08-21T01:36:37.061Z,0
2022-08-21T01:37:37.062Z,0
2022-08-21T01:38:37.115Z,0
2022-08-21T01:39:37.118Z,0
2022-08-21T01:40:37.062Z,0
2022-08-21T01:41:37.055Z,0
2022-08-21T01:42:37.060Z,0
2022-08-21T01:43:39.920Z,0
2022-08-21T01:44:37.049Z,0
2022-08-21T01:45:37.059Z,0
2022-08-21T01:46:37.056Z,0
2022-08-21T01:47:37.055Z,0
2022-08-21T01:48:37.074Z,0
2022-08-21T01:49:37.069Z,0
2022-08-21T01:50:37.052Z,0
2022-08-21T01:51:37.067Z,0
2022-08-21T01:52:37.055Z,0
2022-08-21T01:53:37.079Z,0
2022-08-21T01:54:37.052Z,0
2022-08-21T01:55:37.059Z,0
2022-08-21T01:56:37.058Z,0
2022-08-21T01:57:37.076Z,0
2022-08-21T01:58:37.070Z,0
2022-08-21T01:59:37.070Z,0
2022-08-21T02:00:37.073Z,0
2022-08-21T02:01:37.052Z,0
2022-08-21T02:02:37.053Z,0
2022-08-21T02:03:37.075Z,0
2022-08-21T02:04:37.062Z,0
2022-08-21T02:05:37.053Z,0
2022-08-21T02:06:37.054Z,0
2022-08-21T02:07:37.050Z,0
2022-08-21T02:08:37.068Z,0
2022-08-21T02:09:37.053Z,0
2022-08-21T02:10:37.049Z,0
2022-08-21T02:11:37.057Z,0
2022-08-21T02:12:37.066Z,0
2022-08-21T02:13:37.088Z,0
2022-08-21T02:14:37.082Z,0
2022-08-21T02:15:37.059Z,0
2022-08-21T02:16:37.066Z,0
2022-08-21T02:17:37.062Z,0
2022-08-21T02:18:37.079Z,0
2022-08-21T02:19:40.500Z,0
2022-08-21T02:20:37.070Z,0
2022-08-21T02:21:37.079Z,0
2022-08-21T02:22:37.060Z,0
2022-08-21T02:23:37.075Z,0
2022-08-21T02:24:37.057Z,0
2022-08-21T02:25:37.051Z,0
2022-08-21T02:26:37.062Z,0
2022-08-21T02:27:37.055Z,0
2022-08-21T02:28:37.076Z,0
2022-08-21T02:29:37.058Z,0
2022-08-21T02:30:37.053Z,0
2022-08-21T02:31:37.060Z,0
2022-08-21T02:32:37.058Z,0
2022-08-21T02:33:37.077Z,0
2022-08-21T02:34:37.067Z,0
2022-08-21T02:35:37.057Z,0
2022-08-21T02:36:37.061Z,0
2022-08-21T02:37:37.056Z,0
2022-08-21T02:38:37.081Z,0
2022-08-21T02:39:37.074Z,0
2022-08-21T02:40:37.056Z,0
2022-08-21T02:41:37.054Z,0
2022-08-21T02:42:37.052Z,0
2022-08-21T02:43:37.069Z,0
2022-08-21T02:44:37.059Z,0
2022-08-21T02:45:37.055Z,0
2022-08-21T02:46:37.067Z,0
2022-08-21T02:47:37.055Z,0
2022-08-21T02:48:37.066Z,0
2022-08-21T02:49:37.063Z,0
2022-08-21T02:50:37.079Z,0
2022-08-21T02:51:37.064Z,0
2022-08-21T02:52:37.058Z,0
2022-08-21T02:53:37.080Z,0
2022-08-21T02:54:37.050Z,0
2022-08-21T02:55:37.053Z,0
2022-08-21T02:56:37.056Z,0
2022-08-21T02:57:37.052Z,0
2022-08-21T02:58:37.079Z,0
2022-08-21T02:59:37.078Z,0
2022-08-21T03:00:37.054Z,0
2022-08-21T03:01:37.079Z,0
2022-08-21T03:02:37.055Z,0
2022-08-21T03:03:37.080Z,0
2022-08-21T03:04:37.056Z,0
2022-08-21T03:05:37.056Z,0
2022-08-21T03:06:37.062Z,0
2022-08-21T03:07:37.052Z,0
2022-08-21T03:08:37.079Z,0
2022-08-21T03:09:37.057Z,0
2022-08-21T03:10:37.060Z,0
2022-08-21T03:11:37.060Z,0
2022-08-21T03:12:37.050Z,0
2022-08-21T03:13:37.075Z,0
2022-08-21T03:14:37.053Z,0
2022-08-21T03:15:37.046Z,0
2022-08-21T03:16:37.054Z,0
2022-08-21T03:17:37.050Z,0
2022-08-21T03:18:37.066Z,0
2022-08-21T03:19:37.049Z,0
2022-08-21T03:20:37.053Z,0
2022-08-21T03:21:37.094Z,0
2022-08-21T03:22:37.054Z,0
2022-08-21T03:23:37.146Z,0
2022-08-21T03:24:37.141Z,0
2022-08-21T03:25:40.662Z,0
2022-08-21T03:26:37.053Z,0
2022-08-21T03:27:37.057Z,0
2022-08-21T03:28:37.072Z,0
2022-08-21T03:29:37.061Z,0
2022-08-21T03:30:37.049Z,0
2022-08-21T03:31:37.060Z,0
2022-08-21T03:32:37.063Z,0
2022-08-21T03:33:37.071Z,0
2022-08-21T03:34:37.062Z,0
2022-08-21T03:35:37.063Z,0
2022-08-21T03:36:37.057Z,0
2022-08-21T03:37:37.055Z,0
2022-08-21T03:38:37.073Z,0
2022-08-21T03:39:37.085Z,1
2022-08-21T03:40:37.063Z,1
2022-08-21T03:41:37.049Z,1
2022-08-21T03:42:37.054Z,1
2022-08-21T03:43:37.089Z,3
2022-08-21T03:44:37.055Z,3
2022-08-21T03:45:37.058Z,5
2022-08-21T03:46:37.053Z,7
2022-08-21T03:47:37.053Z,9
2022-08-21T03:48:37.071Z,9
2022-08-21T03:49:37.054Z,11
2022-08-21T03:50:41.225Z,12
2022-08-21T03:51:37.053Z,14
2022-08-21T03:52:37.051Z,16
2022-08-21T03:53:37.068Z,20
2022-08-21T03:54:37.051Z,23
2022-08-21T03:55:37.048Z,25
2022-08-21T03:56:37.052Z,27
2022-08-21T03:57:37.050Z,31
2022-08-21T03:58:37.071Z,35
2022-08-21T03:59:37.057Z,38
2022-08-21T04:00:37.067Z,44
2022-08-21T04:01:37.124Z,49
2022-08-21T04:02:37.066Z,53
2022-08-21T04:03:37.073Z,58
2022-08-21T04:04:37.061Z,64
2022-08-21T04:05:37.056Z,70
2022-08-21T04:06:37.953Z,70
2022-08-21T04:12:37.084Z,127
2022-08-21T04:13:44.360Z,132
2022-08-21T04:14:37.060Z,141
2022-08-21T04:15:37.056Z,140
2022-08-21T04:16:37.057Z,127
2022-08-21T04:17:37.058Z,106
2022-08-21T04:18:37.071Z,106
2022-08-21T04:19:37.069Z,147
2022-08-21T04:20:37.053Z,200
2022-08-21T04:21:37.060Z,199
2022-08-21T04:22:37.060Z,211
2022-08-21T04:23:37.075Z,204
2022-08-21T04:24:37.061Z,197
2022-08-21T04:25:37.058Z,167
2022-08-21T04:26:37.070Z,175
2022-08-21T04:27:37.080Z,186
2022-08-21T04:28:37.075Z,152
2022-08-21T04:29:39.951Z,165
2022-08-21T04:30:37.059Z,189
2022-08-21T04:31:37.073Z,178
2022-08-21T04:32:37.075Z,200
2022-08-21T04:33:37.080Z,200
2022-08-21T04:34:37.065Z,182
2022-08-21T04:35:37.058Z,173
2022-08-21T04:36:37.066Z,140
2022-08-21T04:37:42.038Z,147
2022-08-21T04:38:37.679Z,160
2022-08-21T04:39:37.124Z,156
2022-08-21T04:40:37.061Z,156
2022-08-21T04:41:37.058Z,149
2022-08-21T04:42:37.079Z,123
2022-08-21T04:43:37.088Z,121
2022-08-21T04:44:37.064Z,116
2022-08-21T04:45:37.062Z,136
2022-08-21T04:46:37.062Z,125
2022-08-21T04:47:52.318Z,105
2022-08-21T04:48:37.086Z,97
2022-08-21T04:49:37.207Z,112
2022-08-21T04:50:37.063Z,112
2022-08-21T04:51:37.074Z,158
2022-08-21T04:52:37.061Z,145
2022-08-21T04:53:37.092Z,147
2022-08-21T04:54:37.072Z,151
2022-08-21T04:55:37.067Z,143
2022-08-21T04:56:37.069Z,136
2022-08-21T04:57:48.407Z,154
2022-08-21T04:58:37.077Z,154
2022-08-21T04:59:37.059Z,134
2022-08-21T05:00:37.053Z,191
2022-08-21T05:01:37.101Z,188
2022-08-21T05:02:37.067Z,184
2022-08-21T05:03:37.086Z,224
2022-08-21T05:04:37.053Z,195
2022-08-21T05:05:37.059Z,173
2022-08-21T05:06:37.065Z,173
2022-08-21T05:07:42.011Z,149
2022-08-21T05:08:37.073Z,127
2022-08-21T05:09:37.064Z,140
2022-08-21T05:10:37.057Z,140
2022-08-21T05:11:37.068Z,171
2022-08-21T05:12:37.075Z,189
2022-08-21T05:13:37.075Z,224
2022-08-21T05:14:37.074Z,245
2022-08-21T05:15:37.069Z,320
2022-08-21T05:16:37.995Z,427
2022-08-21T05:17:37.056Z,645
2022-08-21T05:22:37.072Z,536
2022-08-21T05:23:37.059Z,556
2022-08-21T05:24:37.070Z,536
2022-08-21T05:25:37.054Z,796
2022-08-21T05:26:43.777Z,711
2022-08-21T05:27:37.079Z,676
2022-08-21T05:28:37.062Z,704
2022-08-21T05:29:37.056Z,871
2022-08-21T05:30:37.047Z,971
2022-08-21T05:31:37.058Z,932
2022-08-21T05:32:37.063Z,866
2022-08-21T05:33:37.056Z,921
2022-08-21T05:34:37.068Z,864
2022-08-21T05:35:37.075Z,903
2022-08-21T05:36:37.057Z,890
2022-08-21T05:37:37.050Z,945
2022-08-21T05:38:37.049Z,973
2022-08-21T05:40:05.040Z,1065
2022-08-21T05:40:37.097Z,1231
2022-08-21T05:41:37.061Z,1349
2022-08-21T05:42:37.077Z,1467
2022-08-21T05:43:37.049Z,1489
2022-08-21T05:44:37.060Z,1481
2022-08-21T05:45:43.469Z,1481
2022-08-21T05:46:37.046Z,1644
2022-08-21T05:47:37.045Z,1550
2022-08-21T05:48:37.047Z,1575
2022-08-21T05:49:37.082Z,1577
2022-08-21T05:50:37.043Z,1577
2022-08-21T05:51:37.048Z,1706
2022-08-21T05:52:37.039Z,1878
2022-08-21T05:53:37.039Z,1977
2022-08-21T05:54:37.054Z,2045
2022-08-21T05:55:39.312Z,2151
2022-08-21T05:56:37.051Z,2202
2022-08-21T05:57:37.070Z,2200
2022-08-21T05:58:37.039Z,2160
2022-08-21T05:59:37.075Z,2151
2022-08-21T06:00:37.043Z,2291
2022-08-21T06:01:37.231Z,2449
2022-08-21T06:02:37.056Z,2466
2022-08-21T06:03:37.063Z,2456
2022-08-21T06:04:37.072Z,2379
2022-08-21T06:05:37.633Z,2364
2022-08-21T06:06:37.058Z,2364
2022-08-21T06:07:37.059Z,2160
2022-08-21T06:08:37.063Z,2206
2022-08-21T06:09:37.068Z,2471
2022-08-21T06:10:37.079Z,2471
2022-08-21T06:11:37.065Z,2178
2022-08-21T06:12:37.071Z,2080
2022-08-21T06:13:37.058Z,2127
2022-08-21T06:14:37.072Z,2294
2022-08-21T06:15:37.057Z,2398
2022-08-21T06:16:37.057Z,2029
2022-08-21T06:17:37.070Z,2398
2022-08-21T06:18:37.056Z,2239
2022-08-21T06:19:37.073Z,2510
2022-08-21T06:20:37.059Z,2950
2022-08-21T06:21:37.055Z,3056
2022-08-21T06:22:37.053Z,2781
2022-08-21T06:23:37.057Z,2694
2022-08-21T06:24:37.069Z,2702
2022-08-21T06:25:37.055Z,2683
2022-08-21T06:26:37.067Z,2722
2022-08-21T06:27:37.076Z,2726
2022-08-21T06:28:37.060Z,2119
2022-08-21T06:29:44.271Z,1869
2022-08-21T06:30:37.076Z,1869
2022-08-21T06:31:37.067Z,1587
2022-08-21T06:32:37.069Z,1391
2022-08-21T06:33:37.070Z,1100
2022-08-21T06:34:37.077Z,899
2022-08-21T06:35:37.065Z,783
2022-08-21T06:36:37.073Z,892
2022-08-21T06:37:37.070Z,1118
2022-08-21T06:38:37.068Z,1006
2022-08-21T06:39:37.965Z,1076
2022-08-21T06:40:37.057Z,1076
2022-08-21T06:41:39.206Z,2079
2022-08-21T06:42:37.072Z,2375
2022-08-21T06:43:39.821Z,2646
2022-08-21T06:44:37.073Z,2818
2022-08-21T06:45:37.063Z,2799
2022-08-21T06:46:37.067Z,2973
2022-08-21T06:47:37.061Z,2998
2022-08-21T06:48:37.058Z,2945
2022-08-21T06:49:37.070Z,2374
2022-08-21T06:50:37.081Z,2095
2022-08-21T06:51:37.052Z,2197
2022-08-21T06:52:37.074Z,2180
2022-08-21T06:53:37.055Z,1415
2022-08-21T06:54:37.081Z,1059
2022-08-21T06:55:37.066Z,1026
2022-08-21T06:56:37.065Z,1210
2022-08-21T06:57:37.076Z,1387
2022-08-21T06:58:37.066Z,2324
2022-08-21T06:59:37.352Z,2648
2022-08-21T07:00:37.056Z,2600
2022-08-21T07:01:37.157Z,2217
2022-08-21T07:02:37.055Z,1563
2022-08-21T07:03:37.067Z,1916
2022-08-21T07:04:37.066Z,2318
2022-08-21T07:05:37.071Z,2635
2022-08-21T07:06:37.070Z,2635
2022-08-21T07:07:37.052Z,2514
2022-08-21T07:08:37.052Z,2600
2022-08-21T07:09:37.069Z,2563
2022-08-21T07:10:37.052Z,2563
2022-08-21T07:11:42.461Z,2735
2022-08-21T07:12:37.081Z,3017
2022-08-21T07:13:37.059Z,3562
2022-08-21T07:14:37.076Z,3789
2022-08-21T07:15:37.057Z,4160
2022-08-21T07:16:37.056Z,4244
2022-08-21T07:17:37.058Z,4718
2022-08-21T07:18:37.055Z,5262
2022-08-21T07:19:37.072Z,5382
2022-08-21T07:20:37.058Z,5183
2022-08-21T07:21:37.056Z,4884
2022-08-21T07:22:37.051Z,4784
2022-08-21T07:23:37.058Z,4154
2022-08-21T07:24:37.073Z,4368
2022-08-21T07:25:37.057Z,5118
2022-08-21T07:26:37.051Z,4702
2022-08-21T07:27:37.073Z,4490
2022-08-21T07:28:37.069Z,4772
2022-08-21T07:29:37.079Z,5151
2022-08-21T07:30:37.061Z,5278
2022-08-21T07:31:37.070Z,4829
2022-08-21T07:32:37.054Z,3983
2022-08-21T07:33:37.067Z,4359
2022-08-21T07:34:37.068Z,4442
2022-08-21T07:35:37.071Z,4386
2022-08-21T07:36:37.060Z,4351
2022-08-21T07:37:37.068Z,4713
2022-08-21T07:38:37.068Z,4377
2022-08-21T07:39:37.106Z,3704
2022-08-21T07:40:37.059Z,3745
2022-08-21T07:41:37.064Z,2818
2022-08-21T07:42:37.089Z,1856
2022-08-21T07:43:37.065Z,1581
2022-08-21T07:44:37.084Z,2267
2022-08-21T07:45:37.069Z,2949
2022-08-21T07:46:37.068Z,2637
2022-08-21T07:47:42.082Z,2880
2022-08-21T07:48:37.067Z,3537
2022-08-21T07:49:37.085Z,3935
2022-08-21T07:50:37.063Z,3891
2022-08-21T07:51:37.062Z,3358
2022-08-21T07:52:37.062Z,2982
2022-08-21T07:53:37.056Z,2833
2022-08-21T07:54:37.088Z,2989
2022-08-21T07:55:37.067Z,3242
2022-08-21T07:56:37.061Z,3303
2022-08-21T07:57:37.087Z,2923
2022-08-21T07:58:37.057Z,3126
2022-08-21T07:59:37.089Z,3089
2022-08-21T08:00:37.066Z,3054
2022-08-21T08:01:37.120Z,3194
2022-08-21T08:02:37.057Z,2877
2022-08-21T08:03:37.074Z,2812
2022-08-21T08:04:37.072Z,3105
2022-08-21T08:05:37.066Z,3024
2022-08-21T08:06:37.070Z,3024
2022-08-21T08:07:37.053Z,3124
2022-08-21T08:08:37.065Z,3369
2022-08-21T08:09:37.152Z,3225
2022-08-21T08:10:37.068Z,3155
2022-08-21T08:11:37.063Z,3389
2022-08-21T08:12:37.092Z,3420
2022-08-21T08:13:37.066Z,3338
2022-08-21T08:14:37.070Z,3450
2022-08-21T08:15:37.788Z,3721
2022-08-21T08:16:37.054Z,4141
2022-08-21T08:17:37.069Z,4445
2022-08-21T08:18:37.055Z,4685
2022-08-21T08:19:37.077Z,4831
2022-08-21T08:20:37.069Z,5125
2022-08-21T08:21:37.063Z,5376
2022-08-21T08:22:37.073Z,5452
2022-08-21T08:23:37.071Z,5907
2022-08-21T08:24:37.082Z,5783
2022-08-21T08:25:37.111Z,5472
2022-08-21T08:26:37.057Z,5325
2022-08-21T08:27:37.075Z,5352
2022-08-21T08:28:37.052Z,5754
2022-08-21T08:29:37.093Z,6167
2022-08-21T08:30:37.050Z,6263
2022-08-21T08:31:37.054Z,6821
2022-08-21T08:32:37.056Z,7245
2022-08-21T08:33:37.061Z,6666
2022-08-21T08:34:37.076Z,6425
2022-08-21T08:35:37.051Z,6403
2022-08-21T08:36:37.053Z,6722
2022-08-21T08:37:37.061Z,6799
2022-08-21T08:38:37.060Z,6539
2022-08-21T08:39:37.122Z,6102
2022-08-21T08:40:37.060Z,5752
2022-08-21T08:41:37.057Z,5057
2022-08-21T08:42:37.072Z,5160
2022-08-21T08:46:37.065Z,4748
2022-08-21T08:47:37.072Z,5063
2022-08-21T08:48:37.054Z,5020
2022-08-21T08:49:37.056Z,4821
2022-08-21T08:50:37.061Z,4768
2022-08-21T08:51:37.059Z,4996
2022-08-21T08:52:37.051Z,4897
2022-08-21T08:53:37.057Z,5087
2022-08-21T08:54:37.047Z,5179
2022-08-21T08:55:37.055Z,5542
2022-08-21T08:56:37.048Z,5776
2022-08-21T08:57:37.065Z,5514
2022-08-21T08:58:37.062Z,5234
2022-08-21T08:59:37.051Z,5424
2022-08-21T09:00:37.069Z,5417
2022-08-21T09:01:38.922Z,5066
2022-08-21T09:02:37.044Z,4873
2022-08-21T09:03:37.050Z,4930
2022-08-21T09:04:37.050Z,5275
2022-08-21T09:05:37.073Z,5391
2022-08-21T09:06:37.059Z,5391
2022-08-21T09:07:37.061Z,5472
2022-08-21T09:08:37.046Z,5507
2022-08-21T09:09:37.047Z,5959
2022-08-21T09:10:37.050Z,6314
2022-08-21T09:11:37.043Z,6716
2022-08-21T09:12:37.069Z,7162
2022-08-21T09:13:38.694Z,7461
2022-08-21T09:14:37.044Z,7805
2022-08-21T09:15:37.062Z,7758
2022-08-21T09:16:37.058Z,7774
2022-08-21T09:17:37.060Z,7649
2022-08-21T09:18:37.067Z,6998
2022-08-21T09:19:37.060Z,6779
2022-08-21T09:20:37.076Z,6500
2022-08-21T09:21:37.063Z,6106
2022-08-21T09:22:37.071Z,5723
2022-08-21T09:23:37.057Z,5953
2022-08-21T09:24:37.068Z,6182
2022-08-21T09:25:37.081Z,6834
2022-08-21T09:26:37.051Z,7656
2022-08-21T09:27:37.075Z,7404
2022-08-21T09:28:37.054Z,8438
2022-08-21T09:29:37.076Z,8438
2022-08-21T09:30:37.067Z,7087
2022-08-21T09:31:37.048Z,6768
2022-08-21T09:32:38.108Z,7632
2022-08-21T09:33:37.063Z,8137
2022-08-21T09:34:37.050Z,7975
2022-08-21T09:35:37.059Z,7087
2022-08-21T09:36:37.073Z,6746
2022-08-21T09:37:37.053Z,6692
2022-08-21T09:38:37.042Z,6744
2022-08-21T09:39:40.730Z,7064
2022-08-21T09:40:37.237Z,7064
2022-08-21T09:41:37.048Z,10484
2022-08-21T09:42:37.066Z,9555
2022-08-21T09:43:37.048Z,8508
2022-08-21T09:44:37.048Z,8985
2022-08-21T09:45:37.060Z,10233
2022-08-21T09:46:37.048Z,11884
2022-08-21T09:47:37.044Z,10887
2022-08-21T09:48:37.044Z,10690
2022-08-21T09:49:37.048Z,15377
2022-08-21T09:50:37.069Z,13075
2022-08-21T09:51:37.071Z,13560
2022-08-21T09:52:37.043Z,17167
2022-08-21T09:53:37.059Z,14470
2022-08-21T09:54:37.064Z,12447
2022-08-21T09:55:37.069Z,16057
2022-08-21T09:56:37.052Z,16010
2022-08-21T09:57:37.075Z,16835
2022-08-21T09:58:37.049Z,10703
2022-08-21T09:59:37.430Z,9046
2022-08-21T10:00:37.116Z,10731
2022-08-21T10:01:37.047Z,11886
2022-08-21T10:02:37.060Z,10644
2022-08-21T10:03:37.067Z,11188
2022-08-21T10:04:37.047Z,10795
2022-08-21T10:05:37.173Z,10609
2022-08-21T10:06:37.056Z,10609
2022-08-21T10:07:37.053Z,10266
2022-08-21T10:08:37.060Z,14977
2022-08-21T10:09:37.071Z,13171
2022-08-21T10:10:37.063Z,11833
2022-08-21T10:11:37.064Z,16885
2022-08-21T10:12:37.067Z,16290
2022-08-21T10:13:37.053Z,15610
2022-08-21T10:14:37.060Z,13416
2022-08-21T10:15:37.056Z,14599
2022-08-21T10:16:37.056Z,14692
2022-08-21T10:17:37.058Z,17208
2022-08-21T10:18:37.055Z,15934
2022-08-21T10:19:37.058Z,17796
2022-08-21T10:20:37.068Z,17796
2022-08-21T10:21:37.062Z,15151
2022-08-21T10:22:37.057Z,13016
2022-08-21T10:23:37.057Z,10858
2022-08-21T10:24:37.046Z,11601
2022-08-21T10:25:37.061Z,11630
2022-08-21T10:26:37.078Z,12041
2022-08-21T10:27:37.071Z,12526
2022-08-21T10:28:37.057Z,11525
2022-08-21T10:29:37.062Z,10939
2022-08-21T10:30:37.055Z,11219
2022-08-21T10:31:37.074Z,12002
2022-08-21T10:32:37.050Z,13425
2022-08-21T10:33:37.226Z,14983
2022-08-21T10:34:37.065Z,14727
2022-08-21T10:35:37.060Z,14964
2022-08-21T10:36:37.066Z,14463
2022-08-21T10:37:37.045Z,15822
2022-08-21T10:38:52.522Z,17709
2022-08-21T10:39:37.242Z,17088
2022-08-21T10:40:37.073Z,17816
2022-08-21T10:41:37.073Z,18667
2022-08-21T10:42:37.075Z,15587
2022-08-21T10:43:37.063Z,14089
2022-08-21T10:44:37.058Z,14535
2022-08-21T10:45:37.059Z,13930
2022-08-21T10:46:37.055Z,13713
2022-08-21T10:47:37.052Z,14107
2022-08-21T10:48:37.049Z,14135
2022-08-21T10:49:37.049Z,14574
2022-08-21T10:50:37.097Z,15678
2022-08-21T10:51:37.125Z,13283
2022-08-21T10:52:37.061Z,12764
2022-08-21T10:53:37.049Z,13307
2022-08-21T10:54:37.062Z,14738
2022-08-21T10:55:37.052Z,13648
2022-08-21T10:56:37.070Z,13208
2022-08-21T10:57:37.077Z,13704
2022-08-21T10:58:37.064Z,13704
2022-08-21T10:59:38.840Z,13138
2022-08-21T11:00:37.095Z,13276
2022-08-21T11:01:37.062Z,12135
2022-08-21T11:02:37.052Z,12965
2022-08-21T11:03:37.043Z,18161
2022-08-21T11:04:49.394Z,18135
2022-08-21T11:05:37.043Z,18175
2022-08-21T11:06:37.060Z,18175
2022-08-21T11:07:37.825Z,17276
2022-08-21T11:08:37.666Z,17678
2022-08-21T11:09:38.186Z,17738
2022-08-21T11:10:37.745Z,16852
2022-08-21T11:11:37.431Z,18878
2022-08-21T11:12:37.355Z,18349
2022-08-21T11:16:37.312Z,19220
2022-08-21T11:17:37.303Z,19845
2022-08-21T11:18:37.311Z,17775
2022-08-21T11:19:37.280Z,12708
2022-08-21T11:20:37.312Z,19880
2022-08-21T11:21:37.306Z,19102
2022-08-21T11:22:37.293Z,19069
2022-08-21T11:23:37.303Z,18964
2022-08-21T11:24:37.312Z,17917
2022-08-21T11:25:37.308Z,18419
2022-08-21T11:26:37.302Z,18304
2022-08-21T11:27:37.316Z,16690
2022-08-21T11:28:37.290Z,16102
2022-08-21T11:29:37.284Z,18710
2022-08-21T11:30:37.280Z,18015
2022-08-21T11:31:37.321Z,18966
2022-08-21T11:32:37.301Z,16881
2022-08-21T11:33:37.280Z,14662
2022-08-21T11:34:37.289Z,15986
2022-08-21T11:35:37.983Z,17079
2022-08-21T11:36:37.321Z,16572
2022-08-21T11:37:37.294Z,17692
2022-08-21T11:38:37.300Z,17071
2022-08-21T11:39:37.311Z,9363
2022-08-21T11:40:37.281Z,9363
2022-08-21T11:41:37.301Z,10640
2022-08-21T11:42:37.326Z,12590
2022-08-21T11:43:37.275Z,12353
2022-08-21T11:44:37.269Z,12900
2022-08-21T11:45:37.277Z,12281
2022-08-21T11:46:37.279Z,10191
2022-08-21T11:47:37.279Z,10202
2022-08-21T11:48:37.277Z,9813
2022-08-21T11:49:37.260Z,9649
2022-08-21T11:50:37.260Z,8733
2022-08-21T11:51:37.276Z,9411
2022-08-21T11:52:37.263Z,10653
2022-08-21T11:53:37.240Z,8793
2022-08-21T11:58:37.032Z,13530
2022-08-21T11:59:40.601Z,11558
2022-08-21T12:00:37.221Z,17239
2022-08-21T12:01:37.328Z,17696
2022-08-21T12:02:37.249Z,17064
2022-08-21T12:03:37.251Z,16878
2022-08-21T12:04:37.240Z,11520
2022-08-21T12:05:37.248Z,17584
2022-08-21T12:06:37.225Z,17584
2022-08-21T12:07:37.258Z,16209
2022-08-21T12:08:37.233Z,17171
2022-08-21T12:09:37.221Z,16563
2022-08-21T12:10:37.227Z,16262
2022-08-21T12:11:37.246Z,15215
2022-08-21T12:12:37.234Z,15234
2022-08-21T12:13:42.063Z,15151
2022-08-21T12:14:37.238Z,16010
2022-08-21T12:15:37.240Z,16419
2022-08-21T12:20:37.210Z,14463
2022-08-21T12:21:36.968Z,15934
2022-08-21T12:22:36.985Z,14913
2022-08-21T12:23:36.968Z,15606
2022-08-21T12:24:36.991Z,16262
2022-08-21T12:25:36.970Z,13656
2022-08-21T12:26:36.972Z,14548
2022-08-21T12:27:36.991Z,12651
2022-08-21T12:28:36.986Z,13140
2022-08-21T12:29:36.977Z,14329
2022-08-21T12:30:36.960Z,14329
2022-08-21T12:31:36.974Z,14564
2022-08-21T12:32:36.974Z,13427
2022-08-21T12:33:36.970Z,14069
2022-08-21T12:34:36.975Z,13070
2022-08-21T12:35:36.965Z,14122
2022-08-21T12:36:38.762Z,13934
2022-08-21T12:37:36.962Z,13090
2022-08-21T12:38:36.959Z,12148
2022-08-21T12:39:36.992Z,11287
2022-08-21T12:40:36.967Z,10294
2022-08-21T12:41:36.964Z,9877
2022-08-21T12:42:36.966Z,9767
2022-08-21T12:43:36.982Z,9365
2022-08-21T12:44:36.958Z,9308
2022-08-21T12:45:36.950Z,10436
2022-08-21T12:46:36.954Z,11228
2022-08-21T12:47:36.967Z,10268
2022-08-21T12:48:36.958Z,9693
2022-08-21T12:49:36.972Z,9149
2022-08-21T12:50:36.966Z,9127
2022-08-21T12:51:36.986Z,9140
2022-08-21T12:52:39.411Z,9394
2022-08-21T12:53:37.015Z,9684
2022-08-21T12:54:37.010Z,9945
2022-08-21T12:58:37.083Z,12152
2022-08-21T12:59:37.068Z,12351
2022-08-21T13:00:37.073Z,12607
2022-08-21T13:01:41.510Z,11907
2022-08-21T13:02:37.093Z,11691
2022-08-21T13:03:37.074Z,10935
2022-08-21T13:04:37.081Z,10229
2022-08-21T13:05:37.080Z,8830
2022-08-21T13:06:37.094Z,8830
2022-08-21T13:07:37.111Z,10384
2022-08-21T13:08:40.768Z,10788
2022-08-21T13:09:37.095Z,11166
2022-08-21T13:10:37.112Z,11558
2022-08-21T13:11:37.122Z,11265
2022-08-21T13:12:37.130Z,11483
2022-08-21T13:13:37.133Z,11634
2022-08-21T13:14:38.375Z,10651
2022-08-21T13:15:37.123Z,10087
2022-08-21T13:16:37.126Z,11379
2022-08-21T13:17:37.151Z,11562
2022-08-21T13:18:37.128Z,11575
2022-08-21T13:19:37.139Z,10307
2022-08-21T13:20:37.124Z,10391
2022-08-21T13:21:37.143Z,10710
2022-08-21T13:22:37.151Z,10355
2022-08-21T13:23:37.144Z,9942
2022-08-21T13:24:42.744Z,9724
2022-08-21T13:25:37.109Z,9875
2022-08-21T13:26:37.110Z,8898
2022-08-21T13:27:37.110Z,8707
2022-08-21T13:28:37.106Z,9050
2022-08-21T13:29:38.522Z,8618
2022-08-21T13:30:37.087Z,8618
2022-08-21T13:31:37.088Z,8515
2022-08-21T13:32:37.106Z,8369
2022-08-21T13:33:37.827Z,8266
2022-08-21T13:34:37.080Z,8209
2022-08-21T13:35:37.090Z,8250
2022-08-21T13:36:37.082Z,8427
2022-08-21T13:37:37.098Z,8703
2022-08-21T13:38:37.083Z,8810
2022-08-21T13:39:37.118Z,8860
2022-08-21T13:40:37.071Z,8860
2022-08-21T13:41:37.083Z,8804
2022-08-21T13:42:37.095Z,8703
2022-08-21T13:43:37.089Z,8751
2022-08-21T13:44:37.102Z,8867
2022-08-21T13:45:37.077Z,9356
2022-08-21T13:46:37.068Z,9851
2022-08-21T13:47:37.100Z,9997
2022-08-21T13:48:37.076Z,10043
2022-08-21T13:49:37.085Z,11079
2022-08-21T13:50:37.066Z,11079
2022-08-21T13:51:37.082Z,12063
2022-08-21T13:56:37.093Z,14030
2022-08-21T13:57:37.083Z,12439
2022-08-21T13:58:37.093Z,14799
2022-08-21T13:59:37.090Z,12196
2022-08-21T14:00:37.063Z,12649
2022-08-21T14:01:37.155Z,11960
2022-08-21T14:02:37.077Z,11182
2022-08-21T14:03:37.079Z,11798
2022-08-21T14:04:37.064Z,14188
2022-08-21T14:05:37.085Z,11016
2022-08-21T14:06:37.061Z,11016
2022-08-21T14:07:37.061Z,14082
2022-08-21T14:08:37.065Z,11838
2022-08-21T14:09:37.064Z,13859
2022-08-21T14:10:37.064Z,15669
2022-08-21T14:11:37.058Z,13075
2022-08-21T14:12:37.065Z,14708
2022-08-21T14:13:38.055Z,12743